Time;durP1;ratioP1;P1;durP2;ratioP2;P2;SDS_P1;SDS_P2;PMS_P1;PMS_P2;Temp;Humidity;BMP_temperature;BMP_pressure;BME280_temperature;BME280_humidity;BME280_pressure;Samples;Min_cycle;Max_cycle;Signal;HPM_P1;HPM_P2
2023/09/05 00:00:45;;;;;;;4.18;3.78;;;18.00;99.90;;;;;;5009264;28;20187;-29
2023/09/05 00:03:11;;;;;;;4.43;3.78;;;18.00;99.90;;;;;;5009268;28;20191;-29
2023/09/05 00:05:36;;;;;;;4.53;4.00;;;17.90;99.90;;;;;;4999060;28;20297;-30
2023/09/05 00:08:03;;;;;;;4.93;4.10;;;17.90;99.90;;;;;;4976435;28;20287;-30
2023/09/05 00:10:28;;;;;;;4.35;3.85;;;17.80;99.90;;;;;;4985163;28;20190;-29
2023/09/05 00:12:54;;;;;;;4.75;3.72;;;17.80;99.90;;;;;;4996698;28;20183;-29
2023/09/05 00:15:20;;;;;;;4.70;3.47;;;17.70;99.90;;;;;;4979743;28;20194;-29
2023/09/05 00:17:46;;;;;;;4.47;4.07;;;17.60;99.90;;;;;;4976849;28;20203;-30
2023/09/05 00:20:15;;;;;;;4.13;3.40;;;17.60;99.90;;;;;;4995876;28;20187;-30
2023/09/05 00:22:42;;;;;;;4.25;3.70;;;17.60;99.90;;;;;;5012989;28;20221;-29
2023/09/05 00:25:11;;;;;;;3.72;3.42;;;17.60;99.90;;;;;;5005620;28;20207;-30
2023/09/05 00:27:39;;;;;;;6.30;3.90;;;17.60;99.90;;;;;;4980081;28;20210;-29
2023/09/05 00:30:05;;;;;;;3.97;3.58;;;17.50;99.90;;;;;;4979647;28;20183;-29
2023/09/05 00:32:32;;;;;;;3.55;3.25;;;17.50;99.90;;;;;;4980033;28;20182;-30
2023/09/05 00:34:59;;;;;;;4.22;3.50;;;17.50;99.90;;;;;;5012680;28;20175;-29
2023/09/05 00:37:24;;;;;;;4.95;3.78;;;17.40;99.90;;;;;;5012294;28;20201;-29
2023/09/05 00:39:50;;;;;;;5.90;3.63;;;17.40;99.90;;;;;;5005156;28;20187;-30
2023/09/05 00:42:17;;;;;;;4.50;4.10;;;17.30;99.90;;;;;;4979867;28;20317;-29
2023/09/05 00:44:47;;;;;;;8.48;3.95;;;17.30;99.90;;;;;;4981585;28;20264;-29
2023/09/05 00:47:13;;;;;;;4.13;3.63;;;17.30;99.90;;;;;;4985821;28;20202;-29
2023/09/05 00:49:41;;;;;;;4.40;3.50;;;17.30;99.90;;;;;;5006358;28;20183;-29
2023/09/05 00:52:10;;;;;;;3.78;3.45;;;17.30;99.90;;;;;;4993585;28;20187;-29
2023/09/05 00:54:37;;;;;;;4.13;3.67;;;17.30;99.90;;;;;;5005209;28;20183;-29
2023/09/05 00:57:03;;;;;;;4.05;3.60;;;17.20;99.90;;;;;;4973916;28;20206;-30
2023/09/05 00:59:29;;;;;;;4.15;3.70;;;17.20;99.90;;;;;;4976388;28;20184;-30
2023/09/05 01:01:55;;;;;;;3.40;3.08;;;17.10;99.90;;;;;;4990828;28;20185;-29
2023/09/05 01:04:22;;;;;;;3.22;2.92;;;17.10;99.90;;;;;;4978465;28;20188;-29
2023/09/05 01:07:09;;;;;;;5.80;3.53;;;17.10;99.90;;;;;;4973040;28;20208;-30
2023/09/05 01:09:50;;;;;;;3.80;3.40;;;17.00;99.90;;;;;;4981041;28;20190;-29
2023/09/05 01:12:17;;;;;;;4.28;3.83;;;16.80;99.90;;;;;;4979297;28;20179;-29
2023/09/05 01:14:43;;;;;;;3.90;3.45;;;16.80;99.90;;;;;;4982048;28;20183;-29
2023/09/05 01:17:09;;;;;;;3.80;3.40;;;16.80;99.90;;;;;;5001012;28;20207;-30
2023/09/05 01:23:30;;;;;;;3.85;3.45;;;16.80;99.90;;;;;;4996282;28;20242;-29
2023/09/05 01:25:57;;;;;;;4.03;3.53;;;16.70;99.90;;;;;;4972495;28;20204;-29
2023/09/05 01:28:24;;;;;;;6.00;3.67;;;16.70;99.90;;;;;;4991738;28;20226;-29
2023/09/05 01:30:50;;;;;;;3.80;3.37;;;16.60;99.90;;;;;;4975360;28;20204;-29
2023/09/05 01:33:16;;;;;;;5.50;3.35;;;16.60;99.90;;;;;;4977578;28;20180;-29
2023/09/05 01:35:42;;;;;;;3.72;3.30;;;16.50;99.90;;;;;;4985559;28;20258;-29
2023/09/05 01:38:08;;;;;;;4.90;3.43;;;16.50;99.90;;;;;;4979946;28;20237;-29
2023/09/05 01:40:34;;;;;;;6.75;3.65;;;16.50;99.90;;;;;;4977040;28;20223;-29
2023/09/05 01:43:00;;;;;;;5.65;3.58;;;16.40;99.90;;;;;;4978900;28;20187;-29
2023/09/05 01:45:25;;;;;;;3.42;3.13;;;16.40;99.90;;;;;;4992878;28;20206;-29
2023/09/05 01:47:51;;;;;;;4.50;3.10;;;16.40;99.90;;;;;;4978300;28;20199;-29
2023/09/05 01:50:19;;;;;;;3.75;3.35;;;16.40;99.90;;;;;;5011186;28;20286;-29
2023/09/05 01:52:45;;;;;;;4.35;3.10;;;16.40;99.90;;;;;;4999160;28;20249;-29
2023/09/05 01:55:11;;;;;;;4.72;3.40;;;16.30;99.90;;;;;;4975463;28;20175;-29
2023/09/05 01:57:37;;;;;;;3.50;3.20;;;16.30;99.90;;;;;;4992448;28;20210;-29
2023/09/05 02:00:03;;;;;;;3.40;3.00;;;16.30;99.90;;;;;;5011411;28;20211;-29
2023/09/05 02:02:39;;;;;;;3.57;3.23;;;16.20;99.90;;;;;;5000533;28;20191;-29
2023/09/05 02:05:06;;;;;;;3.87;3.20;;;16.00;99.90;;;;;;4995529;28;20218;-29
2023/09/05 02:07:32;;;;;;;4.23;3.00;;;15.90;99.90;;;;;;4976706;28;20203;-29
2023/09/05 02:09:59;;;;;;;3.37;3.00;;;15.80;99.90;;;;;;5011378;28;20183;-29
2023/09/05 02:12:25;;;;;;;4.47;3.10;;;15.80;99.90;;;;;;5010805;28;20175;-29
2023/09/05 02:14:51;;;;;;;4.13;3.20;;;15.90;99.90;;;;;;5006700;28;20186;-29
2023/09/05 02:17:20;;;;;;;4.20;3.17;;;15.80;99.90;;;;;;4990421;28;20203;-29
2023/09/05 02:19:46;;;;;;;3.67;3.30;;;15.80;99.90;;;;;;5010839;28;20225;-29
2023/09/05 02:22:12;;;;;;;4.60;3.73;;;15.70;99.90;;;;;;4987355;28;20187;-29
2023/09/05 02:24:38;;;;;;;3.67;3.27;;;15.60;99.90;;;;;;4976293;28;20176;-29
2023/09/05 02:27:07;;;;;;;4.37;3.50;;;15.60;99.90;;;;;;4977967;28;20234;-29
2023/09/05 02:29:34;;;;;;;3.70;3.30;;;15.50;99.90;;;;;;4976769;28;20187;-31
2023/09/05 02:32:01;;;;;;;4.07;3.30;;;15.50;99.90;;;;;;4994302;28;20193;-29
2023/09/05 02:34:27;;;;;;;4.63;3.47;;;15.50;99.90;;;;;;4981527;28;20184;-29
2023/09/05 02:36:54;;;;;;;4.17;3.30;;;15.40;99.90;;;;;;5005486;28;20207;-29
2023/09/05 02:39:20;;;;;;;3.43;3.13;;;15.40;99.90;;;;;;4990366;28;20190;-28
2023/09/05 02:41:46;;;;;;;4.00;3.30;;;15.40;99.90;;;;;;5010189;28;20214;-29
2023/09/05 02:44:12;;;;;;;4.37;3.30;;;15.30;99.90;;;;;;4981174;28;20226;-29
2023/09/05 02:46:37;;;;;;;4.43;3.33;;;15.30;99.90;;;;;;5000397;28;20223;-29
2023/09/05 02:49:03;;;;;;;3.80;3.40;;;15.20;99.90;;;;;;5010323;28;20214;-28
2023/09/05 02:51:30;;;;;;;4.50;3.60;;;15.20;99.90;;;;;;5008045;28;20172;-28
2023/09/05 02:53:59;;;;;;;3.80;3.50;;;15.10;99.90;;;;;;4978576;28;20189;-29
2023/09/05 02:56:25;;;;;;;3.73;3.33;;;15.10;99.90;;;;;;4996803;28;20283;-29
2023/09/05 02:58:51;;;;;;;3.50;3.20;;;15.10;99.90;;;;;;4974329;28;20280;-29
2023/09/05 03:01:17;;;;;;;5.27;3.63;;;15.00;99.90;;;;;;4972858;28;20194;-28
2023/09/05 03:03:43;;;;;;;3.40;3.10;;;15.00;99.90;;;;;;4992798;28;20190;-28
2023/09/05 03:06:14;;;;;;;4.50;3.17;;;15.00;99.90;;;;;;4976722;28;20310;-28
2023/09/05 03:08:44;;;;;;;4.33;3.60;;;15.00;99.90;;;;;;4977275;28;20281;-29
2023/09/05 03:11:10;;;;;;;4.93;3.40;;;15.00;99.90;;;;;;4974259;28;20190;-28
2023/09/05 03:13:37;;;;;;;5.67;3.37;;;15.10;99.90;;;;;;4990838;28;20183;-28
2023/09/05 03:16:03;;;;;;;4.87;3.77;;;15.10;99.90;;;;;;5009360;28;20274;-29
2023/09/05 03:18:29;;;;;;;5.63;4.03;;;15.10;99.90;;;;;;4969795;28;20258;-28
2023/09/05 03:20:55;;;;;;;4.80;4.10;;;15.00;99.90;;;;;;4973759;28;20192;-28
2023/09/05 03:23:22;;;;;;;4.87;3.50;;;15.00;99.90;;;;;;4973843;28;20226;-28
2023/09/05 03:25:48;;;;;;;4.67;3.47;;;15.00;99.90;;;;;;4976802;28;20294;-28
2023/09/05 03:28:14;;;;;;;4.53;4.13;;;15.00;99.90;;;;;;4976444;28;20326;-28
2023/09/05 03:30:42;;;;;;;4.53;3.70;;;14.90;99.90;;;;;;4980011;28;20229;-29
2023/09/05 03:33:09;;;;;;;3.50;3.20;;;14.90;99.90;;;;;;5009918;28;20183;-28
2023/09/05 03:35:35;;;;;;;3.90;3.53;;;14.80;99.90;;;;;;5009212;28;20194;-29
2023/09/05 03:38:02;;;;;;;3.40;3.03;;;14.70;99.90;;;;;;4995345;28;20288;-28
2023/09/05 03:40:29;;;;;;;4.87;3.27;;;14.60;99.90;;;;;;4976868;28;20185;-29
2023/09/05 03:42:55;;;;;;;4.03;3.13;;;14.60;99.90;;;;;;4979822;28;20292;-28
2023/09/05 03:45:21;;;;;;;3.53;3.13;;;14.50;99.90;;;;;;4985009;28;20355;-28
2023/09/05 03:47:47;;;;;;;4.27;3.17;;;14.60;99.90;;;;;;5004696;28;20199;-28
2023/09/05 03:50:15;;;;;;;4.03;3.40;;;14.50;99.90;;;;;;5013599;28;20202;-28
2023/09/05 03:52:41;;;;;;;6.00;3.43;;;14.50;99.90;;;;;;4999473;28;20184;-28
2023/09/05 03:55:07;;;;;;;7.27;3.60;;;14.50;99.90;;;;;;5002914;28;20210;-29
2023/09/05 03:57:33;;;;;;;4.30;3.40;;;14.50;99.90;;;;;;4979238;28;20215;-28
2023/09/05 03:59:58;;;;;;;4.03;3.47;;;14.50;99.90;;;;;;5013429;28;20198;-28
2023/09/05 04:02:24;;;;;;;5.83;3.40;;;14.50;99.90;;;;;;5001547;28;20215;-28
2023/09/05 04:04:54;;;;;;;4.20;3.40;;;14.60;99.90;;;;;;4989626;28;20187;-28
2023/09/05 04:07:25;;;;;;;4.30;3.50;;;14.60;99.90;;;;;;4982581;28;20230;-28
2023/09/05 04:09:53;;;;;;;4.53;3.37;;;14.60;99.90;;;;;;5005130;28;20187;-28
2023/09/05 04:12:19;;;;;;;4.97;3.43;;;14.50;99.90;;;;;;5012945;28;20198;-28
2023/09/05 04:14:44;;;;;;;4.43;3.50;;;14.50;99.90;;;;;;5007419;28;20179;-29
2023/09/05 04:17:10;;;;;;;4.60;3.27;;;14.40;99.90;;;;;;4999588;28;20199;-28
2023/09/05 04:19:36;;;;;;;4.93;3.80;;;14.40;99.90;;;;;;5012943;28;20183;-29
2023/09/05 04:22:02;;;;;;;4.63;3.00;;;14.40;99.90;;;;;;5006443;28;20646;-28
2023/09/05 04:24:28;;;;;;;5.03;3.63;;;14.30;99.90;;;;;;5001705;28;20175;-28
2023/09/05 04:26:54;;;;;;;3.90;3.50;;;14.40;99.90;;;;;;5013125;28;20265;-29
2023/09/05 04:29:20;;;;;;;4.40;3.33;;;14.30;99.90;;;;;;5012914;28;20716;-29
2023/09/05 04:31:46;;;;;;;4.77;3.00;;;14.30;99.90;;;;;;5007247;28;20179;-29
2023/09/05 04:34:12;;;;;;;5.90;3.80;;;14.20;99.90;;;;;;4983126;28;20237;-28
2023/09/05 04:36:38;;;;;;;5.07;3.63;;;14.20;99.90;;;;;;5006629;28;20208;-29
2023/09/05 04:39:04;;;;;;;4.50;3.67;;;14.20;99.90;;;;;;4989776;28;20187;-28
2023/09/05 04:41:30;;;;;;;5.37;3.73;;;14.10;99.90;;;;;;5012178;28;20226;-29
2023/09/05 04:43:56;;;;;;;3.90;3.60;;;14.20;99.90;;;;;;5012158;28;20179;-29
2023/09/05 04:46:22;;;;;;;5.07;4.13;;;14.00;99.90;;;;;;4984535;28;20282;-29
2023/09/05 04:48:49;;;;;;;4.20;3.80;;;14.00;99.90;;;;;;4996098;28;20188;-29
2023/09/05 04:51:15;;;;;;;5.57;4.33;;;14.10;99.90;;;;;;4977504;28;20199;-28
2023/09/05 04:53:41;;;;;;;4.70;4.03;;;14.00;99.90;;;;;;4987667;28;20187;-29
2023/09/05 04:56:07;;;;;;;5.37;3.93;;;14.00;99.90;;;;;;5000177;28;20183;-28
2023/09/05 04:58:33;;;;;;;4.60;3.97;;;14.00;99.90;;;;;;4987609;28;20223;-28
2023/09/05 05:01:03;;;;;;;5.50;4.60;;;14.00;99.90;;;;;;5006521;28;20187;-28
2023/09/05 05:03:30;;;;;;;4.33;3.93;;;13.90;99.90;;;;;;4977085;28;20252;-29
2023/09/05 05:05:56;;;;;;;5.07;3.90;;;13.90;99.90;;;;;;4984095;28;20215;-29
2023/09/05 05:08:22;;;;;;;5.53;3.53;;;13.80;99.90;;;;;;4975719;28;20195;-28
2023/09/05 05:10:48;;;;;;;4.50;3.73;;;13.80;99.90;;;;;;4978509;28;20184;-29
2023/09/05 05:13:14;;;;;;;4.90;3.27;;;13.80;99.90;;;;;;4976422;28;20267;-28
2023/09/05 05:15:40;;;;;;;4.73;3.57;;;13.80;99.90;;;;;;4979119;28;20273;-29
2023/09/05 05:18:05;;;;;;;4.13;3.70;;;13.80;99.90;;;;;;4984402;28;20203;-28
2023/09/05 05:20:32;;;;;;;5.40;3.60;;;13.80;99.90;;;;;;4976280;28;20187;-28
2023/09/05 05:22:58;;;;;;;5.47;4.70;;;13.90;99.90;;;;;;4980708;28;20188;-29
2023/09/05 05:25:24;;;;;;;6.13;4.13;;;14.00;99.90;;;;;;4976133;28;20206;-29
2023/09/05 05:27:51;;;;;;;5.37;4.40;;;14.00;99.90;;;;;;4979059;28;20241;-29
2023/09/05 05:30:17;;;;;;;5.67;4.70;;;14.10;99.90;;;;;;5011440;28;20183;-29
2023/09/05 05:32:46;;;;;;;4.80;4.30;;;14.10;99.90;;;;;;4985649;28;20179;-29
2023/09/05 05:35:11;;;;;;;6.83;4.43;;;14.20;99.90;;;;;;5001428;28;20179;-29
2023/09/05 05:37:37;;;;;;;5.43;4.27;;;14.30;99.90;;;;;;4978101;28;20201;-28
2023/09/05 05:40:04;;;;;;;5.00;4.50;;;14.40;99.90;;;;;;4996506;28;20206;-29
2023/09/05 05:42:30;;;;;;;4.63;4.13;;;14.50;99.90;;;;;;5011197;28;20191;-29
2023/09/05 05:44:55;;;;;;;5.00;4.50;;;14.70;99.90;;;;;;5008409;28;20189;-29
2023/09/05 05:47:22;;;;;;;4.93;4.17;;;14.80;99.90;;;;;;4984413;28;20196;-29
2023/09/05 05:49:48;;;;;;;5.10;4.60;;;14.90;99.90;;;;;;4992064;28;20206;-28
2023/09/05 05:52:14;;;;;;;6.50;4.90;;;15.00;99.90;;;;;;4981090;28;20214;-29
2023/09/05 05:54:41;;;;;;;6.03;4.20;;;15.10;99.90;;;;;;4984840;28;20180;-28
2023/09/05 05:57:06;;;;;;;5.17;4.67;;;15.10;99.90;;;;;;5011314;28;20298;-29
2023/09/05 05:59:32;;;;;;;6.10;4.47;;;15.10;99.90;;;;;;5011045;28;20274;-29
2023/09/05 06:01:59;;;;;;;4.57;4.07;;;15.20;99.90;;;;;;4984001;28;20189;-29
2023/09/05 06:04:25;;;;;;;4.83;4.27;;;15.30;99.90;;;;;;4977847;28;20197;-29
2023/09/05 06:06:51;;;;;;;5.53;4.10;;;15.40;99.90;;;;;;4975451;28;20212;-29
2023/09/05 06:09:20;;;;;;;5.23;4.40;;;15.40;99.90;;;;;;4975237;28;20180;-29
2023/09/05 06:11:46;;;;;;;4.40;4.00;;;15.50;99.90;;;;;;4979645;28;20228;-29
2023/09/05 06:14:16;;;;;;;5.20;4.10;;;15.60;99.90;;;;;;5021226;28;20190;-28
2023/09/05 06:16:47;;;;;;;4.60;3.67;;;15.80;99.90;;;;;;5010466;28;20215;-29
2023/09/05 06:19:14;;;;;;;7.60;4.20;;;15.90;99.90;;;;;;5009377;28;20210;-28
2023/09/05 06:21:41;;;;;;;5.83;4.17;;;16.00;99.90;;;;;;4965368;28;20343;-28
2023/09/05 06:24:07;;;;;;;10.77;4.20;;;16.10;99.90;;;;;;4994281;28;20270;-28
2023/09/05 06:26:33;;;;;;;4.40;3.80;;;16.20;99.90;;;;;;4974468;28;20223;-30
2023/09/05 06:28:59;;;;;;;4.40;3.70;;;16.30;99.90;;;;;;4974640;28;20686;-29
2023/09/05 06:31:25;;;;;;;4.30;3.90;;;16.40;99.90;;;;;;4993639;28;20180;-29
2023/09/05 06:33:51;;;;;;;5.30;3.83;;;16.40;99.90;;;;;;5001698;28;20184;-29
2023/09/05 06:36:16;;;;;;;4.87;3.43;;;16.50;99.90;;;;;;5009785;28;20234;-29
2023/09/05 06:38:42;;;;;;;4.88;3.38;;;16.60;99.90;;;;;;4975755;28;20195;-29
2023/09/05 06:41:10;;;;;;;4.83;3.60;;;16.70;99.90;;;;;;4974274;28;20180;-29
2023/09/05 06:43:36;;;;;;;5.70;3.60;;;16.90;99.90;;;;;;4987517;28;20256;-29
2023/09/05 06:46:07;;;;;;;4.95;3.78;;;17.00;99.90;;;;;;5004330;28;20207;-28
2023/09/05 06:48:38;;;;;;;4.53;3.10;;;17.00;99.90;;;;;;4978539;28;20230;-28
2023/09/05 06:51:04;;;;;;;4.47;3.65;;;17.10;99.90;;;;;;4973917;28;20176;-29
2023/09/05 06:53:31;;;;;;;5.97;3.67;;;17.20;99.90;;;;;;4982127;28;20183;-29
2023/09/05 06:55:57;;;;;;;3.95;3.35;;;17.30;99.90;;;;;;5002269;28;20183;-29
2023/09/05 06:58:25;;;;;;;5.30;3.60;;;17.40;99.90;;;;;;4974357;28;20204;-29
2023/09/05 07:00:54;;;;;;;5.07;3.53;;;17.60;99.90;;;;;;4982685;28;20198;-29
2023/09/05 07:03:25;;;;;;;4.72;3.40;;;17.70;99.90;;;;;;4978264;28;20176;-29
2023/09/05 07:05:52;;;;;;;3.40;2.97;;;17.80;99.90;;;;;;4976855;28;20207;-29
2023/09/05 07:08:18;;;;;;;5.05;3.85;;;18.00;99.90;;;;;;4981088;28;20210;-29
2023/09/05 07:10:45;;;;;;;3.65;3.25;;;18.10;99.90;;;;;;4974990;28;20172;-29
2023/09/05 07:13:11;;;;;;;7.35;3.40;;;18.20;99.90;;;;;;4983056;28;20183;-29
2023/09/05 07:15:37;;;;;;;3.55;3.10;;;18.40;99.90;;;;;;5009716;28;20190;-29
2023/09/05 07:18:03;;;;;;;4.65;3.08;;;18.50;99.90;;;;;;5010056;28;20203;-30
2023/09/05 07:20:30;;;;;;;3.60;2.88;;;18.60;99.90;;;;;;4998537;28;20214;-29
2023/09/05 07:22:56;;;;;;;3.85;2.60;;;18.70;99.90;;;;;;4980655;28;20195;-29
2023/09/05 07:25:22;;;;;;;5.35;2.72;;;18.90;99.90;;;;;;5000942;28;20719;-29
2023/09/05 07:27:47;;;;;;;3.38;2.83;;;18.90;99.90;;;;;;4975182;28;20219;-29
2023/09/05 07:30:16;;;;;;;4.10;2.80;;;19.10;99.90;;;;;;4974171;28;20199;-29
2023/09/05 07:32:43;;;;;;;3.47;2.60;;;19.20;99.90;;;;;;4990306;28;20189;-29
2023/09/05 07:35:09;;;;;;;3.95;2.58;;;19.20;99.90;;;;;;4993985;28;20182;-29
2023/09/05 07:37:36;;;;;;;2.72;2.40;;;19.30;99.90;;;;;;4975626;28;20206;-29
2023/09/05 07:40:05;;;;;;;3.63;2.75;;;19.40;99.90;;;;;;4973899;28;20212;-29
2023/09/05 07:42:30;;;;;;;4.75;2.63;;;19.50;99.90;;;;;;4976988;28;20189;-29
2023/09/05 07:44:56;;;;;;;3.92;2.45;;;19.70;99.90;;;;;;4976368;28;20183;-29
2023/09/05 07:47:22;;;;;;;5.53;2.47;;;19.80;99.90;;;;;;5009491;28;20199;-29
2023/09/05 07:49:48;;;;;;;7.53;3.20;;;19.90;99.90;;;;;;5009865;28;20627;-29
2023/09/05 07:52:14;;;;;;;4.32;2.65;;;20.00;99.90;;;;;;4993031;28;20184;-29
2023/09/05 07:54:40;;;;;;;6.40;2.83;;;20.10;99.90;;;;;;4982278;28;20191;-29
2023/09/05 07:57:05;;;;;;;7.88;2.97;;;20.20;99.90;;;;;;5009636;28;20210;-29
2023/09/05 07:59:31;;;;;;;3.10;2.25;;;20.40;99.90;;;;;;5008558;28;20202;-29
2023/09/05 08:01:57;;;;;;;7.28;3.10;;;20.50;99.90;;;;;;4975713;28;20191;-29
2023/09/05 08:04:23;;;;;;;13.00;2.80;;;20.60;99.90;;;;;;4995962;28;20199;-29
2023/09/05 08:06:50;;;;;;;5.07;2.90;;;20.70;99.90;;;;;;4992665;28;20223;-29
2023/09/05 08:09:15;;;;;;;2.67;2.47;;;20.90;99.90;;;;;;4992151;28;20207;-29
2023/09/05 08:11:41;;;;;;;3.58;2.30;;;20.90;99.90;;;;;;4974027;28;20211;-29
2023/09/05 08:14:07;;;;;;;2.75;2.35;;;21.00;99.90;;;;;;4976974;28;20175;-29
2023/09/05 08:16:34;;;;;;;2.60;2.40;;;21.20;99.90;;;;;;4978964;28;20294;-29
2023/09/05 08:19:00;;;;;;;2.83;2.58;;;21.40;99.90;;;;;;4981485;28;20187;-29
2023/09/05 08:21:26;;;;;;;5.43;2.28;;;21.40;99.90;;;;;;4975649;28;20191;-29
2023/09/05 08:23:53;;;;;;;2.42;2.17;;;21.50;99.90;;;;;;4982113;28;20195;-29
2023/09/05 08:26:19;;;;;;;2.80;2.20;;;21.70;99.90;;;;;;5009059;28;20262;-29
2023/09/05 08:28:45;;;;;;;3.10;2.42;;;21.90;99.90;;;;;;5007711;28;20202;-30
2023/09/05 08:31:12;;;;;;;2.97;1.98;;;22.00;99.90;;;;;;4988348;28;20176;-29
2023/09/05 08:33:38;;;;;;;3.97;2.75;;;22.10;99.90;;;;;;4979996;28;20171;-30
2023/09/05 08:36:05;;;;;;;3.55;2.22;;;22.30;99.90;;;;;;4979998;28;20225;-29
2023/09/05 08:38:31;;;;;;;2.97;2.50;;;22.50;99.90;;;;;;4972684;28;20235;-29
2023/09/05 08:41:01;;;;;;;2.40;2.20;;;22.60;99.90;;;;;;4962870;28;20235;-30
2023/09/05 08:43:28;;;;;;;3.13;2.40;;;22.60;99.90;;;;;;5012551;28;20191;-29
2023/09/05 08:45:55;;;;;;;3.97;2.50;;;22.70;99.90;;;;;;5009575;28;20242;-29
2023/09/05 08:48:21;;;;;;;3.03;2.08;;;22.90;99.90;;;;;;4976879;28;20219;-30
2023/09/05 08:50:48;;;;;;;4.60;2.30;;;23.00;99.90;;;;;;4993289;28;20219;-29
2023/09/05 08:53:15;;;;;;;5.05;2.58;;;23.20;99.90;;;;;;4992714;28;20179;-29
2023/09/05 08:55:43;;;;;;;2.65;2.35;;;23.30;99.90;;;;;;4976669;28;20673;-30
2023/09/05 08:58:13;;;;;;;2.92;2.22;;;23.50;99.90;;;;;;4996651;28;20210;-30
2023/09/05 09:00:39;;;;;;;2.60;2.22;;;23.60;99.90;;;;;;5004962;28;20195;-29
2023/09/05 09:03:08;;;;;;;2.30;2.10;;;23.70;99.90;;;;;;4987875;28;20183;-30
2023/09/05 09:05:35;;;;;;;2.55;2.10;;;23.90;99.90;;;;;;5011253;28;20243;-30
2023/09/05 09:08:01;;;;;;;2.45;2.10;;;24.00;99.90;;;;;;4997927;28;20210;-29
2023/09/05 09:10:27;;;;;;;2.30;2.10;;;24.10;99.90;;;;;;5011794;28;20210;-29
2023/09/05 09:12:54;;;;;;;2.85;1.80;;;24.30;99.90;;;;;;5011692;28;20187;-30
2023/09/05 09:15:24;;;;;;;4.05;1.95;;;24.50;99.90;;;;;;4998296;28;20329;-30
2023/09/05 09:17:51;;;;;;;2.13;1.92;;;24.50;99.90;;;;;;4977057;28;20261;-30
2023/09/05 09:20:18;;;;;;;2.75;2.10;;;24.60;99.90;;;;;;4980883;28;20284;-30
2023/09/05 09:22:45;;;;;;;2.40;2.05;;;24.70;99.90;;;;;;4994176;28;20240;-30
2023/09/05 09:25:20;;;;;;;3.03;1.92;;;24.80;99.90;;;;;;4996008;28;20270;-29
2023/09/05 09:27:59;;;;;;;3.15;2.33;;;24.90;99.90;;;;;;5011463;28;20229;-30
2023/09/05 09:30:27;;;;;;;3.95;2.20;;;25.10;99.90;;;;;;4975765;28;20184;-30
2023/09/05 09:32:54;;;;;;;3.33;2.15;;;25.10;99.90;;;;;;4992526;28;20191;-30
2023/09/05 09:35:21;;;;;;;2.75;2.03;;;25.10;99.90;;;;;;5011502;28;20197;-30
2023/09/05 09:37:49;;;;;;;2.90;2.10;;;25.10;99.90;;;;;;4998433;28;20203;-30
2023/09/05 09:40:18;;;;;;;3.85;2.50;;;25.30;99.90;;;;;;4995210;28;20183;-30
2023/09/05 09:42:48;;;;;;;2.47;2.28;;;25.50;99.90;;;;;;5011031;28;20241;-30
2023/09/05 09:45:17;;;;;;;3.03;2.17;;;25.60;99.90;;;;;;5011333;28;20241;-30
2023/09/05 09:47:48;;;;;;;3.25;1.85;;;25.80;99.90;;;;;;4998051;28;20221;-30
2023/09/05 09:50:16;;;;;;;3.17;1.90;;;25.90;99.90;;;;;;4975182;28;20183;-30
2023/09/05 09:52:44;;;;;;;2.15;2.03;;;26.00;99.90;;;;;;4971945;28;20187;-31
2023/09/05 09:55:13;;;;;;;2.47;2.08;;;26.10;99.90;;;;;;5011160;28;20191;-30
2023/09/05 09:57:46;;;;;;;1.83;1.70;;;26.20;99.90;;;;;;5011115;28;20323;-30
2023/09/05 10:00:15;;;;;;;2.80;2.05;;;26.30;99.90;;;;;;4971411;28;20210;-30
2023/09/05 10:02:45;;;;;;;2.40;2.08;;;26.30;99.90;;;;;;4982885;28;20185;-30
2023/09/05 10:05:12;;;;;;;2.28;1.95;;;26.40;99.90;;;;;;4979587;28;20198;-30
2023/09/05 10:07:38;;;;;;;2.25;2.00;;;26.30;99.90;;;;;;4995079;28;20198;-30
2023/09/05 10:10:05;;;;;;;3.30;2.22;;;26.40;99.90;;;;;;5002492;28;20266;-30
2023/09/05 10:12:31;;;;;;;2.83;2.30;;;26.50;99.90;;;;;;4994283;28;20190;-30
2023/09/05 10:15:02;;;;;;;2.10;1.85;;;26.60;99.90;;;;;;5005205;28;20183;-30
2023/09/05 10:17:30;;;;;;;1.80;1.70;;;26.70;99.90;;;;;;4980808;28;20207;-30
2023/09/05 10:19:58;;;;;;;1.80;1.58;;;26.70;99.90;;;;;;5010744;28;20211;-30
2023/09/05 10:22:24;;;;;;;2.53;1.80;;;26.80;99.90;;;;;;4996855;28;20190;-30
2023/09/05 10:24:53;;;;;;;1.83;1.73;;;26.90;99.90;;;;;;4999853;28;20214;-30
2023/09/05 10:27:19;;;;;;;2.45;2.05;;;27.00;99.90;;;;;;5010839;28;20246;-30
2023/09/05 10:29:46;;;;;;;2.88;1.92;;;27.10;99.90;;;;;;5010165;28;20194;-30
2023/09/05 10:32:22;;;;;;;2.78;2.20;;;27.20;99.90;;;;;;4970394;28;20183;-29
2023/09/05 10:34:48;;;;;;;3.40;2.00;;;27.30;99.90;;;;;;4975222;28;20175;-29
2023/09/05 10:37:22;;;;;;;2.17;1.98;;;27.40;99.90;;;;;;4982112;28;20210;-30
2023/09/05 10:39:54;;;;;;;4.47;1.85;;;27.50;99.90;;;;;;4977771;28;20242;-30
2023/09/05 10:42:32;;;;;;;6.15;2.08;;;27.50;99.90;;;;;;4977126;28;20190;-30
2023/09/05 10:45:29;;;;;;;2.60;1.98;;;27.60;99.90;;;;;;4983667;28;20282;-30
2023/09/05 10:48:07;;;;;;;2.85;2.05;;;27.70;99.90;;;;;;4993941;28;20199;-29
2023/09/05 10:51:10;;;;;;;2.15;1.80;;;27.80;99.90;;;;;;5009655;28;20187;-30
2023/09/05 10:53:47;;;;;;;2.15;1.95;;;28.00;99.90;;;;;;4988238;28;20179;-30
2023/09/05 10:56:37;;;;;;;2.72;2.00;;;28.00;99.90;;;;;;4994754;28;20261;-30
2023/09/05 10:59:03;;;;;;;5.50;1.90;;;28.00;99.90;;;;;;4986363;28;20284;-30
2023/09/05 11:01:34;;;;;;;2.13;1.80;;;28.10;99.90;;;;;;5003205;28;20186;-30
2023/09/05 11:04:08;;;;;;;2.55;2.20;;;28.00;99.90;;;;;;4982719;28;20182;-29
2023/09/05 11:06:34;;;;;;;2.90;1.80;;;28.10;99.90;;;;;;4974092;28;20231;-31
2023/09/05 11:09:06;;;;;;;2.25;2.00;;;28.20;99.90;;;;;;4967879;28;20192;-31
2023/09/05 11:11:37;;;;;;;3.75;1.58;;;28.20;99.90;;;;;;4993182;28;20199;-31
2023/09/05 11:14:03;;;;;;;2.10;1.90;;;28.30;99.90;;;;;;4977601;28;20168;-31
2023/09/05 11:16:46;;;;;;;1.98;1.63;;;28.40;99.90;;;;;;5009842;28;20179;-31
2023/09/05 11:19:27;;;;;;;1.98;1.77;;;28.60;99.90;;;;;;5010074;28;20227;-31
2023/09/05 11:22:05;;;;;;;3.85;1.80;;;28.80;99.90;;;;;;4995366;28;20286;-30
2023/09/05 11:24:34;;;;;;;2.33;1.52;;;29.00;99.90;;;;;;4974632;28;20281;-31
2023/09/05 11:27:00;;;;;;;1.70;1.60;;;29.10;99.90;;;;;;5001434;28;20211;-31
2023/09/05 11:29:28;;;;;;;2.03;1.67;;;29.20;99.90;;;;;;4999251;28;20178;-31
2023/09/05 11:32:00;;;;;;;1.50;1.40;;;29.40;99.90;;;;;;4974992;28;20179;-31
2023/09/05 11:34:27;;;;;;;1.65;1.52;;;29.50;99.90;;;;;;4974049;28;20180;-31
2023/09/05 11:36:53;;;;;;;2.25;1.63;;;29.50;99.90;;;;;;4982809;28;20221;-31
2023/09/05 11:39:27;;;;;;;2.10;1.60;;;29.70;99.90;;;;;;4993159;28;20187;-31
2023/09/05 11:41:57;;;;;;;1.60;1.50;;;29.80;99.90;;;;;;4975212;28;20428;-31
2023/09/05 11:44:39;;;;;;;2.20;1.60;;;29.90;99.90;;;;;;5009919;28;20191;-31
2023/09/05 11:47:06;;;;;;;2.00;1.85;;;30.10;99.90;;;;;;5009247;28;20305;-31
2023/09/05 11:49:34;;;;;;;2.30;1.80;;;30.00;99.90;;;;;;4999959;28;20267;-31
2023/09/05 11:52:03;;;;;;;1.50;1.40;;;30.20;99.90;;;;;;4978497;28;20190;-31
2023/09/05 11:54:32;;;;;;;1.77;1.67;;;30.20;99.90;;;;;;4995543;28;20246;-31
2023/09/05 11:56:59;;;;;;;2.08;1.40;;;30.30;99.90;;;;;;5009595;28;20207;-31
2023/09/05 11:59:25;;;;;;;1.55;1.45;;;30.20;99.90;;;;;;4975206;28;20188;-31
2023/09/05 12:01:52;;;;;;;1.50;1.40;;;30.20;99.90;;;;;;4981931;28;20190;-31
2023/09/05 12:04:19;;;;;;;1.58;1.48;;;30.30;99.90;;;;;;5008725;28;20179;-31
2023/09/05 12:06:49;;;;;;;1.77;1.38;;;30.50;99.90;;;;;;5004015;28;20298;-31
2023/09/05 12:09:15;;;;;;;1.85;1.60;;;30.60;99.90;;;;;;4981568;28;20179;-31
2023/09/05 12:11:41;;;;;;;1.70;1.35;;;30.50;99.90;;;;;;5001215;28;20190;-31
2023/09/05 12:14:06;;;;;;;1.83;1.50;;;30.50;99.90;;;;;;4995819;28;20182;-31
2023/09/05 12:16:32;;;;;;;1.73;1.40;;;30.40;99.90;;;;;;5012657;28;20353;-31
2023/09/05 12:19:02;;;;;;;1.70;1.60;;;30.60;99.90;;;;;;4982207;28;20187;-30
2023/09/05 12:21:41;;;;;;;1.50;1.40;;;30.40;99.90;;;;;;4997148;28;20274;-30
2023/09/05 12:24:17;;;;;;;1.60;1.50;;;30.40;99.90;;;;;;4979516;28;20271;-31
2023/09/05 12:26:43;;;;;;;1.85;1.50;;;30.60;99.90;;;;;;4976488;28;20254;-30
2023/09/05 12:29:09;;;;;;;1.60;1.33;;;30.70;99.90;;;;;;4979949;28;20183;-31
2023/09/05 12:31:36;;;;;;;2.17;1.55;;;30.90;99.90;;;;;;4977265;28;20191;-30
2023/09/05 12:34:02;;;;;;;1.30;1.20;;;31.10;99.90;;;;;;4985115;28;20222;-31
2023/09/05 12:36:29;;;;;;;1.50;1.40;;;31.30;99.90;;;;;;5011246;28;20191;-31
2023/09/05 12:38:55;;;;;;;2.05;1.40;;;31.30;99.90;;;;;;4977492;28;20195;-31
2023/09/05 12:41:21;;;;;;;1.70;1.60;;;30.90;99.90;;;;;;4974780;28;20651;-30
2023/09/05 12:43:46;;;;;;;2.22;1.77;;;30.90;99.90;;;;;;4988858;28;20183;-31
2023/09/05 12:46:12;;;;;;;2.42;1.33;;;31.10;99.90;;;;;;4993480;28;20290;-31
2023/09/05 12:48:38;;;;;;;1.70;1.40;;;31.30;99.90;;;;;;5012252;28;20197;-31
2023/09/05 12:51:04;;;;;;;1.48;1.38;;;31.40;99.90;;;;;;5003741;28;20186;-31
2023/09/05 12:53:30;;;;;;;1.70;1.38;;;31.50;99.90;;;;;;4997565;28;20183;-31